createdAt,value
2022-12-06T00:01:32.528Z,8.80
2022-12-06T00:04:05.346Z,9.13
2022-12-06T00:06:33.756Z,8.80
2022-12-06T00:09:03.168Z,8.55
2022-12-06T00:11:34.486Z,8.63
2022-12-06T00:14:04.325Z,8.65
2022-12-06T00:16:38.569Z,8.13
2022-12-06T00:19:07.527Z,8.50
2022-12-06T00:21:38.859Z,8.40
2022-12-06T00:24:14.417Z,8.50
2022-12-06T00:26:43.699Z,8.88
2022-12-06T00:29:21.850Z,8.02
2022-12-06T00:31:55.791Z,9.05
2022-12-06T00:34:27.286Z,7.93
2022-12-06T00:36:56.193Z,8.38
2022-12-06T00:39:22.919Z,9.02
2022-12-06T00:41:54.476Z,7.95
2022-12-06T00:44:23.634Z,8.50
2022-12-06T00:46:52.730Z,8.98
2022-12-06T00:49:19.381Z,8.45
2022-12-06T00:51:48.333Z,7.90
2022-12-06T00:54:15.973Z,8.93
2022-12-06T00:56:44.870Z,9.07
2022-12-06T00:59:13.706Z,9.90
2022-12-06T01:01:44.002Z,9.27
2022-12-06T01:04:10.820Z,9.38
2022-12-06T01:06:40.042Z,9.30
2022-12-06T01:09:11.191Z,10.25
2022-12-06T01:11:40.261Z,9.48
2022-12-06T01:14:11.889Z,9.20
2022-12-06T01:16:46.665Z,9.63
2022-12-06T01:19:13.797Z,10.00
2022-12-06T01:21:42.700Z,10.27
2022-12-06T01:24:09.553Z,9.38
2022-12-06T01:26:40.957Z,10.23
2022-12-06T01:29:07.606Z,9.63
2022-12-06T01:31:39.475Z,9.90
2022-12-06T01:34:13.207Z,10.32
2022-12-06T01:36:42.829Z,11.07
2022-12-06T01:39:10.775Z,10.23
2022-12-06T01:41:38.802Z,9.95
2022-12-06T01:44:25.506Z,10.18
2022-12-06T01:46:52.219Z,10.77
2022-12-06T01:49:26.313Z,11.52
2022-12-06T01:52:04.129Z,11.75
2022-12-06T01:54:32.381Z,11.77
2022-12-06T01:57:02.395Z,10.68
2022-12-06T01:59:32.217Z,10.80
2022-12-06T02:02:02.246Z,11.95
2022-12-06T02:04:32.137Z,11.80
2022-12-06T02:07:05.590Z,10.82
2022-12-06T02:09:37.238Z,11.63
2022-12-06T02:12:06.742Z,12.18
2022-12-06T02:14:38.299Z,11.07
2022-12-06T02:17:10.706Z,11.57
2022-12-06T02:20:02.023Z,13.75
2022-12-06T02:22:52.985Z,11.65
2022-12-06T02:25:44.557Z,13.20
2022-12-06T02:28:17.389Z,12.63
2022-12-06T02:31:05.024Z,12.45
2022-12-06T02:33:49.530Z,12.20
2022-12-06T02:36:22.178Z,12.25
2022-12-06T02:38:48.855Z,11.75
2022-12-06T02:41:28.433Z,11.55
2022-12-06T02:44:01.952Z,12.10
2022-12-06T02:46:34.802Z,12.52
2022-12-06T02:49:05.120Z,11.48
2022-12-06T02:51:39.161Z,10.75
2022-12-06T02:54:10.600Z,11.57
2022-12-06T02:56:37.311Z,12.43
2022-12-06T02:59:04.166Z,10.95
2022-12-06T03:01:34.724Z,12.23
2022-12-06T03:04:19.254Z,11.98
2022-12-06T03:07:13.335Z,12.15
2022-12-06T03:10:02.145Z,11.75
2022-12-06T03:13:00.249Z,12.30
2022-12-06T03:15:53.920Z,12.45
2022-12-06T03:18:40.897Z,11.77
2022-12-06T03:21:13.214Z,12.65
2022-12-06T03:23:47.679Z,11.75
2022-12-06T03:26:18.468Z,12.30
2022-12-06T03:28:48.285Z,12.60
2022-12-06T03:31:15.573Z,12.25
2022-12-06T03:34:02.654Z,13.10
2022-12-06T03:36:34.137Z,13.82
2022-12-06T03:39:06.561Z,13.65
2022-12-06T03:41:41.614Z,12.73
2022-12-06T03:44:12.721Z,13.73
2022-12-06T03:46:46.668Z,14.20
2022-12-06T03:49:35.102Z,13.90
2022-12-06T03:52:04.887Z,12.98
2022-12-06T03:54:34.022Z,13.25
2022-12-06T03:57:01.364Z,14.15
2022-12-06T03:59:28.003Z,14.27
2022-12-06T04:01:54.808Z,13.93
2022-12-06T04:04:26.318Z,13.63
2022-12-06T04:06:53.211Z,14.05
2022-12-06T04:09:38.320Z,15.05
2022-12-06T04:12:27.626Z,13.60
2022-12-06T04:14:54.401Z,13.10
2022-12-06T04:17:39.550Z,14.32
2022-12-06T04:20:07.183Z,13.80
2022-12-06T04:22:52.314Z,14.02
2022-12-06T04:25:21.989Z,14.30
2022-12-06T04:28:07.222Z,14.10
2022-12-06T04:30:52.685Z,15.50
2022-12-06T04:33:38.081Z,13.52
2022-12-06T04:36:23.610Z,14.40
2022-12-06T04:38:50.346Z,15.52
2022-12-06T04:41:37.016Z,14.93
2022-12-06T04:44:07.223Z,14.93
2022-12-06T04:46:34.170Z,16.95
2022-12-06T04:49:05.716Z,15.65
2022-12-06T04:51:35.147Z,15.13
2022-12-06T04:54:05.411Z,14.73
2022-12-06T04:56:32.135Z,16.05
2022-12-06T04:59:01.708Z,15.00
2022-12-06T05:01:30.671Z,15.45
2022-12-06T05:03:57.404Z,15.85
2022-12-06T05:06:26.598Z,15.35
2022-12-06T05:08:55.663Z,14.65
2022-12-06T05:11:24.581Z,14.00
2022-12-06T05:13:51.290Z,15.35
2022-12-06T05:16:18.003Z,14.48
2022-12-06T05:18:44.742Z,15.60
2022-12-06T05:21:20.190Z,14.68
2022-12-06T05:23:47.287Z,14.05
2022-12-06T05:26:19.165Z,14.40
2022-12-06T05:28:49.053Z,15.55
2022-12-06T05:31:16.561Z,14.00
2022-12-06T05:33:43.277Z,14.20
2022-12-06T05:36:21.454Z,14.35
2022-12-06T05:38:51.633Z,14.13
2022-12-06T05:41:26.063Z,13.23
2022-12-06T05:43:57.348Z,13.93
2022-12-06T05:46:24.133Z,13.38
2022-12-06T05:48:53.350Z,15.13
2022-12-06T05:51:22.463Z,14.82
2022-12-06T05:53:49.167Z,13.77
2022-12-06T05:56:15.888Z,12.98
2022-12-06T05:58:42.590Z,12.93
2022-12-06T06:01:09.943Z,13.77
2022-12-06T06:03:39.008Z,13.20
2022-12-06T06:06:12.243Z,12.27
2022-12-06T06:08:38.903Z,13.30
2022-12-06T06:11:05.707Z,13.13
2022-12-06T06:13:34.546Z,14.15
2022-12-06T06:16:03.461Z,14.00
2022-12-06T06:18:30.177Z,14.02
2022-12-06T06:21:02.435Z,12.30
2022-12-06T06:23:31.571Z,13.93
2022-12-06T06:25:58.325Z,13.93
2022-12-06T06:28:27.286Z,13.20
2022-12-06T06:30:56.112Z,13.27
2022-12-06T06:33:22.920Z,14.10
2022-12-06T06:35:49.554Z,13.70
2022-12-06T06:38:16.183Z,14.32
2022-12-06T06:40:42.890Z,13.50
2022-12-06T06:43:21.002Z,14.70
2022-12-06T06:46:02.971Z,13.07
2022-12-06T06:48:32.099Z,14.02
2022-12-06T06:51:14.771Z,14.35
2022-12-06T06:53:43.892Z,13.90
2022-12-06T06:56:11.247Z,13.48
2022-12-06T06:58:38.069Z,12.93
2022-12-06T07:01:07.062Z,13.52
2022-12-06T07:03:36.288Z,14.73
2022-12-06T07:06:08.376Z,15.88
2022-12-06T07:08:37.223Z,13.82
2022-12-06T07:11:04.558Z,13.88
2022-12-06T07:13:33.975Z,13.60
2022-12-06T07:16:04.140Z,14.70
2022-12-06T07:18:30.947Z,14.18
2022-12-06T07:21:05.586Z,13.20
2022-12-06T07:23:36.177Z,14.18
2022-12-06T07:26:14.063Z,14.90
2022-12-06T07:28:44.953Z,15.13
2022-12-06T07:31:19.785Z,14.63
2022-12-06T07:33:54.991Z,14.40
2022-12-06T07:36:24.400Z,14.35
2022-12-06T07:38:53.594Z,14.75
2022-12-06T07:41:41.353Z,15.48
2022-12-06T07:44:32.703Z,14.95
2022-12-06T07:46:59.434Z,17.42
2022-12-06T07:49:26.137Z,16.58
2022-12-06T07:51:54.046Z,15.57
2022-12-06T07:54:23.062Z,15.95
2022-12-06T07:56:50.220Z,16.73
2022-12-06T07:59:19.776Z,15.07
2022-12-06T08:01:46.563Z,16.00
2022-12-06T08:04:13.647Z,16.80
2022-12-06T08:06:42.575Z,16.75
2022-12-06T08:09:12.055Z,18.80
2022-12-06T08:11:38.699Z,17.00
2022-12-06T08:14:05.427Z,15.65
2022-12-06T08:16:34.607Z,14.77
2022-12-06T08:19:01.908Z,16.88
2022-12-06T08:21:38.402Z,16.58
2022-12-06T08:24:05.369Z,16.30
2022-12-06T08:26:32.079Z,16.67
2022-12-06T08:29:03.244Z,16.20
2022-12-06T08:31:36.989Z,17.30
2022-12-06T08:34:04.143Z,15.35
2022-12-06T08:36:30.981Z,15.85
2022-12-06T08:39:02.608Z,15.15
2022-12-06T08:41:47.723Z,15.75
2022-12-06T08:44:16.173Z,15.48
2022-12-06T08:46:46.143Z,13.85
2022-12-06T08:49:15.148Z,15.82
2022-12-06T08:51:44.278Z,14.88
2022-12-06T08:54:16.584Z,13.90
2022-12-06T08:56:43.573Z,15.70
2022-12-06T08:59:10.810Z,14.05
2022-12-06T09:01:39.645Z,15.45
2022-12-06T09:04:08.172Z,14.30
2022-12-06T09:06:39.820Z,14.57
2022-12-06T09:09:07.503Z,14.15
2022-12-06T09:11:39.400Z,14.75
2022-12-06T09:14:09.025Z,14.23
2022-12-06T09:16:36.026Z,13.40
2022-12-06T09:19:04.939Z,13.35
2022-12-06T09:21:39.574Z,12.95
2022-12-06T09:24:15.267Z,12.75
2022-12-06T09:29:13.856Z,13.80
2022-12-06T09:31:40.985Z,14.07
2022-12-06T09:34:09.184Z,13.75
2022-12-06T09:36:42.698Z,13.20
2022-12-06T09:39:29.640Z,13.80
2022-12-06T09:42:29.039Z,13.43
2022-12-06T09:45:04.652Z,13.85
2022-12-06T09:47:48.089Z,14.40
2022-12-06T09:50:41.305Z,14.57
2022-12-06T09:53:43.275Z,13.68
2022-12-06T09:56:41.564Z,11.93
2022-12-06T09:59:53.233Z,14.50
2022-12-06T10:02:40.459Z,13.88
2022-12-06T10:05:13.196Z,14.10
2022-12-06T10:08:04.812Z,14.60
2022-12-06T10:10:52.160Z,14.00
2022-12-06T10:13:28.065Z,14.07
2022-12-06T10:16:31.383Z,12.85
2022-12-06T10:19:25.699Z,12.20
2022-12-06T10:22:01.637Z,13.02
2022-12-06T10:24:55.373Z,12.00
2022-12-06T10:27:38.493Z,12.50
2022-12-06T10:30:12.229Z,11.93
2022-12-06T10:32:44.394Z,12.43
2022-12-06T10:35:17.743Z,12.38
2022-12-06T10:37:50.964Z,11.05
2022-12-06T10:40:24.152Z,11.38
2022-12-06T10:43:12.185Z,11.57
2022-12-06T10:46:26.297Z,10.70
2022-12-06T10:49:15.209Z,10.98
2022-12-06T10:51:48.853Z,11.18
2022-12-06T10:54:26.694Z,11.15
2022-12-06T10:56:58.701Z,10.73
2022-12-06T10:59:38.812Z,10.93
2022-12-06T11:02:48.144Z,10.77
2022-12-06T11:05:30.323Z,12.40
2022-12-06T11:08:52.657Z,11.75
2022-12-06T11:11:28.298Z,9.32
2022-12-06T11:16:38.284Z,9.55
2022-12-06T11:19:51.663Z,9.88
2022-12-06T11:22:47.414Z,8.80
2022-12-06T11:25:54.354Z,9.75
2022-12-06T11:28:37.796Z,8.85
2022-12-06T11:31:26.355Z,9.43
2022-12-06T11:33:53.671Z,9.05
2022-12-06T11:36:24.601Z,10.10
2022-12-06T11:38:51.996Z,9.73
2022-12-06T11:41:26.364Z,9.38
2022-12-06T11:43:57.082Z,8.82
2022-12-06T11:46:29.469Z,8.48
2022-12-06T11:49:10.978Z,8.77
2022-12-06T11:51:40.100Z,9.02
2022-12-06T11:54:54.629Z,8.02
2022-12-06T11:57:26.798Z,9.38
2022-12-06T12:00:13.985Z,8.00
2022-12-06T12:02:45.439Z,7.93
2022-12-06T12:05:38.719Z,8.50
2022-12-06T12:08:07.378Z,7.68
2022-12-06T12:10:40.084Z,7.20
2022-12-06T12:13:31.331Z,7.50
2022-12-06T12:16:26.092Z,7.60
2022-12-06T12:19:01.357Z,7.28
2022-12-06T12:21:32.771Z,7.85
2022-12-06T12:24:02.266Z,7.03
2022-12-06T12:26:38.990Z,6.72
2022-12-06T12:29:15.331Z,7.35
2022-12-06T12:31:54.424Z,6.95
2022-12-06T12:34:28.447Z,7.15
2022-12-06T12:37:01.571Z,7.13
2022-12-06T12:39:50.039Z,7.53
2022-12-06T12:42:33.007Z,9.00
2022-12-06T12:45:03.761Z,6.85
2022-12-06T12:47:31.856Z,6.50
2022-12-06T12:50:20.229Z,6.45
2022-12-06T12:52:49.505Z,7.05
2022-12-06T12:55:19.428Z,6.47
2022-12-06T12:57:53.037Z,6.38
2022-12-06T13:00:25.278Z,7.00
2022-12-06T13:03:03.544Z,6.82
2022-12-06T13:05:40.672Z,6.53
2022-12-06T13:08:18.990Z,7.20
2022-12-06T13:13:44.355Z,6.15
2022-12-06T13:16:14.778Z,6.28
2022-12-06T13:18:47.609Z,6.63
2022-12-06T13:21:33.818Z,6.75
2022-12-06T13:24:23.841Z,6.53
2022-12-06T13:27:04.651Z,6.57
2022-12-06T13:29:34.443Z,6.68
2022-12-06T13:32:17.464Z,6.65
2022-12-06T13:34:50.783Z,6.68
2022-12-06T13:37:44.613Z,6.22
2022-12-06T13:40:34.006Z,6.32
2022-12-06T13:43:05.959Z,6.63
2022-12-06T13:45:47.036Z,6.68
2022-12-06T13:48:25.695Z,6.88
2022-12-06T13:51:11.143Z,6.25
2022-12-06T13:54:03.416Z,6.05
2022-12-06T13:56:35.351Z,6.38
2022-12-06T13:59:03.465Z,7.07
2022-12-06T14:02:05.388Z,6.53
2022-12-06T14:09:49.169Z,6.15
2022-12-06T14:12:20.407Z,6.75
2022-12-06T14:15:05.748Z,6.47
2022-12-06T14:18:01.576Z,5.97
2022-12-06T14:20:28.901Z,6.50
2022-12-06T14:22:56.071Z,6.05
2022-12-06T14:25:31.239Z,6.03
2022-12-06T14:28:07.455Z,5.88
2022-12-06T14:30:34.781Z,6.05
2022-12-06T14:33:15.995Z,5.78
2022-12-06T14:35:56.657Z,5.47
2022-12-06T14:38:33.411Z,5.95
2022-12-06T14:41:18.615Z,5.57
2022-12-06T14:43:50.202Z,5.87
2022-12-06T14:46:19.319Z,5.70
2022-12-06T14:49:05.234Z,6.20
2022-12-06T14:51:40.297Z,6.47
2022-12-06T14:54:31.887Z,5.80
2022-12-06T14:57:01.741Z,6.13
2022-12-06T15:00:13.388Z,6.13
2022-12-06T15:02:27.717Z,6.10
2022-12-06T15:04:59.674Z,6.97
2022-12-06T15:07:42.224Z,6.93
2022-12-06T15:10:29.851Z,6.10
2022-12-06T15:13:16.697Z,5.40
2022-12-06T15:15:47.792Z,5.85
2022-12-06T15:18:25.029Z,5.75
2022-12-06T15:20:53.530Z,6.20
2022-12-06T15:23:30.070Z,6.15
2022-12-06T15:25:57.467Z,5.68
2022-12-06T15:28:24.268Z,6.20
2022-12-06T15:30:53.500Z,6.05
2022-12-06T15:33:24.837Z,5.93
2022-12-06T15:35:54.531Z,5.97
2022-12-06T15:38:23.979Z,6.43
2022-12-06T15:40:53.195Z,5.97
2022-12-06T15:43:30.883Z,6.15
2022-12-06T15:46:07.041Z,5.80
2022-12-06T15:48:36.888Z,5.35
2022-12-06T15:51:12.271Z,5.78
2022-12-06T15:53:44.986Z,5.13
2022-12-06T15:56:16.962Z,5.57
2022-12-06T15:58:46.696Z,6.00
2022-12-06T16:01:25.505Z,5.80
2022-12-06T16:03:54.745Z,5.47
2022-12-06T16:06:22.732Z,5.65
2022-12-06T16:08:49.551Z,5.53
2022-12-06T16:11:20.425Z,5.55
2022-12-06T16:13:48.894Z,6.25
2022-12-06T16:16:20.357Z,5.50
2022-12-06T16:18:49.689Z,6.38
2022-12-06T16:21:27.383Z,5.97
2022-12-06T16:24:14.844Z,6.50
2022-12-06T16:26:47.016Z,7.88
2022-12-06T16:29:21.680Z,7.45
2022-12-06T16:31:48.551Z,7.25
2022-12-06T16:34:20.119Z,7.03
2022-12-06T16:37:06.453Z,6.68
2022-12-06T16:39:37.419Z,6.85
2022-12-06T16:42:07.422Z,7.28
2022-12-06T16:44:50.833Z,6.63
2022-12-06T16:49:51.845Z,7.60
2022-12-06T16:52:18.637Z,8.55
2022-12-06T16:54:45.439Z,8.95
2022-12-06T16:57:19.413Z,8.77
2022-12-06T16:59:46.482Z,8.40
2022-12-06T17:02:27.700Z,8.18
2022-12-06T17:05:00.854Z,8.73
2022-12-06T17:07:28.329Z,8.77
2022-12-06T17:09:56.596Z,8.68
2022-12-06T17:12:23.574Z,9.13
2022-12-06T17:14:55.578Z,8.88
2022-12-06T17:17:22.785Z,8.50
2022-12-06T17:19:52.416Z,8.00
2022-12-06T17:22:19.792Z,8.52
2022-12-06T17:24:46.519Z,7.85
2022-12-06T17:27:14.761Z,8.45
2022-12-06T17:29:45.335Z,8.15
2022-12-06T17:32:12.981Z,8.57
2022-12-06T17:34:45.101Z,8.45
2022-12-06T17:37:14.279Z,8.13
2022-12-06T17:39:48.000Z,8.63
2022-12-06T17:42:33.695Z,9.48
2022-12-06T17:45:03.575Z,8.35
2022-12-06T17:47:30.495Z,8.55
2022-12-06T17:49:57.596Z,7.47
2022-12-06T17:52:24.849Z,7.65
2022-12-06T17:54:51.558Z,8.77
2022-12-06T17:57:18.735Z,9.10
2022-12-06T17:59:49.618Z,9.00
2022-12-06T18:02:19.851Z,9.05
2022-12-06T18:04:47.660Z,8.38
2022-12-06T18:07:15.658Z,7.55
2022-12-06T18:09:42.619Z,8.75
2022-12-06T18:12:13.124Z,9.00
2022-12-06T18:14:42.102Z,8.65
2022-12-06T18:17:09.019Z,11.63
2022-12-06T18:19:35.908Z,8.95
2022-12-06T18:22:03.480Z,8.25
2022-12-06T18:24:35.852Z,9.05
2022-12-06T18:27:06.722Z,8.25
2022-12-06T18:29:35.844Z,7.95
2022-12-06T18:32:05.233Z,8.23
2022-12-06T18:34:32.085Z,8.65
2022-12-06T18:36:58.807Z,8.35
2022-12-06T18:39:28.120Z,9.38
2022-12-06T18:41:55.560Z,8.57
2022-12-06T18:45:00.546Z,9.13
2022-12-06T18:47:45.796Z,8.48
2022-12-06T18:50:12.520Z,9.18
2022-12-06T18:52:41.407Z,9.07
2022-12-06T18:55:08.591Z,9.23
2022-12-06T18:57:41.022Z,8.88
2022-12-06T19:00:08.515Z,8.25
2022-12-06T19:02:37.854Z,9.38
2022-12-06T19:05:05.493Z,8.85
2022-12-06T19:07:32.758Z,10.00
2022-12-06T19:10:00.408Z,9.27
2022-12-06T19:12:30.039Z,9.40
2022-12-06T19:14:56.711Z,8.25
2022-12-06T19:17:23.813Z,8.32
2022-12-06T19:19:50.597Z,9.18
2022-12-06T19:22:19.574Z,9.35
2022-12-06T19:24:46.384Z,8.52
2022-12-06T19:27:20.658Z,7.93
2022-12-06T19:29:48.308Z,8.50
2022-12-06T19:32:15.560Z,8.70
2022-12-06T19:34:42.956Z,8.35
2022-12-06T19:37:09.896Z,8.52
2022-12-06T19:39:36.934Z,8.00
2022-12-06T19:42:22.161Z,9.00
2022-12-06T19:44:48.887Z,8.30
2022-12-06T19:47:15.548Z,8.65
2022-12-06T19:49:46.919Z,8.88
2022-12-06T19:52:13.895Z,9.40
2022-12-06T19:54:41.692Z,8.95
2022-12-06T19:57:11.083Z,8.35
2022-12-06T19:59:40.304Z,8.70
2022-12-06T20:02:10.393Z,8.93
2022-12-06T20:04:39.732Z,8.27
2022-12-06T20:07:07.048Z,7.93
2022-12-06T20:09:34.343Z,9.20
2022-12-06T20:12:03.263Z,8.98
2022-12-06T20:14:49.456Z,9.10
2022-12-06T20:17:24.344Z,9.70
2022-12-06T20:19:51.280Z,9.98
2022-12-06T20:22:22.696Z,9.65
2022-12-06T20:24:49.716Z,10.38
2022-12-06T20:27:41.174Z,9.77
2022-12-06T20:30:08.782Z,10.57
2022-12-06T20:32:37.726Z,9.57
2022-12-06T20:35:08.899Z,10.73
2022-12-06T20:37:35.810Z,10.15
2022-12-06T20:40:03.130Z,9.93
2022-12-06T20:42:31.096Z,10.10
2022-12-06T20:44:57.766Z,10.05
2022-12-06T20:47:24.971Z,11.57
2022-12-06T20:49:51.713Z,11.23
2022-12-06T20:52:18.595Z,10.07
2022-12-06T20:54:45.332Z,11.18
2022-12-06T20:57:12.615Z,10.82
2022-12-06T20:59:41.849Z,10.98
2022-12-06T21:02:15.851Z,11.77
2022-12-06T21:04:42.906Z,11.50
2022-12-06T21:07:12.114Z,12.77
2022-12-06T21:09:38.817Z,11.38
2022-12-06T21:12:10.854Z,12.13
2022-12-06T21:14:48.850Z,11.90
2022-12-06T21:17:15.547Z,11.98
2022-12-06T21:19:44.624Z,12.05
2022-12-06T21:22:11.495Z,12.32
2022-12-06T21:24:39.303Z,10.80
2022-12-06T21:27:07.205Z,13.05
2022-12-06T21:29:38.212Z,12.15
2022-12-06T21:32:07.241Z,13.10
2022-12-06T21:34:46.027Z,12.75
2022-12-06T21:37:15.831Z,13.40
2022-12-06T21:39:46.547Z,12.88
2022-12-06T21:42:17.025Z,12.93
2022-12-06T21:44:48.327Z,14.50
2022-12-06T21:47:15.060Z,13.50
2022-12-06T21:49:42.699Z,14.13
2022-12-06T21:52:09.668Z,15.35
2022-12-06T21:54:36.383Z,13.05
2022-12-06T21:57:03.482Z,13.88
2022-12-06T21:59:30.300Z,14.32
2022-12-06T22:01:59.189Z,13.77
2022-12-06T22:04:30.561Z,12.65
2022-12-06T22:06:57.293Z,14.15
2022-12-06T22:09:26.527Z,13.70
2022-12-06T22:11:55.700Z,13.93
2022-12-06T22:14:24.778Z,14.15
2022-12-06T22:16:51.745Z,13.43
2022-12-06T22:19:18.753Z,16.27
2022-12-06T22:21:45.712Z,14.20
2022-12-06T22:24:17.171Z,14.70
2022-12-06T22:26:46.011Z,14.18
2022-12-06T22:29:17.793Z,12.95
2022-12-06T22:31:47.256Z,14.02
2022-12-06T22:34:14.188Z,14.05
2022-12-06T22:36:41.003Z,12.07
2022-12-06T22:39:09.881Z,15.25
2022-12-06T22:41:37.034Z,15.82
2022-12-06T22:44:05.615Z,15.73
2022-12-06T22:46:34.022Z,16.98
2022-12-06T22:49:03.728Z,16.80
2022-12-06T22:51:36.117Z,16.75
2022-12-06T22:54:07.453Z,16.63
2022-12-06T22:56:37.055Z,18.10
2022-12-06T22:59:03.850Z,17.65
2022-12-06T23:01:34.859Z,19.85
2022-12-06T23:04:06.374Z,21.25
2022-12-06T23:06:34.711Z,19.20
2022-12-06T23:09:01.682Z,18.45
2022-12-06T23:11:33.231Z,19.17
2022-12-06T23:14:03.098Z,19.95
2022-12-06T23:16:31.001Z,21.80
2022-12-06T23:18:59.882Z,20.38
2022-12-06T23:21:35.520Z,22.25
2022-12-06T23:26:36.695Z,19.27
2022-12-06T23:29:09.316Z,20.30
2022-12-06T23:31:39.448Z,22.67
2022-12-06T23:34:14.582Z,21.33
2022-12-06T23:36:41.649Z,21.73
2022-12-06T23:39:09.597Z,22.88
2022-12-06T23:41:37.185Z,21.75
2022-12-06T23:44:07.009Z,21.70
2022-12-06T23:46:40.781Z,21.17
2022-12-06T23:49:11.983Z,20.30
2022-12-06T23:51:38.924Z,21.98
2022-12-06T23:54:10.567Z,21.58
2022-12-06T23:56:39.001Z,21.67
2022-12-06T23:59:07.706Z,20.98
